Moody Air Force Base

Airport
ICAO code: 
KVAD
Summary
ICAO Region: 
NAM
Territory: 
Location: 
Valdosta, Georgia,
Coordinates: 
Aerial View: 
30° 58' 7" N, 83° 11' 34.994" W
Metar
Observation
KVAD 031956Z AUTO 33005KT 10SM CLR 23/12 A3005 RMK AO2 SLP177 T02340124 $
Station
Moody Air Force Base
Date/Time
2021-12-03 19:56:00
Wind direction
330°
Wind speed
05 kts
Lowest cloud amount
n/a
Temperature
23.4°C
Dew point
12.4°C
Humidity
50%
Weather condition
n/a

Description

Moody Air Force Base is a United States Air Force installation located in Lowndes County and Lanier County, about 14 km northeast of Valdosta, Georgia.

Climatology

Humid “subtropical” climate (Köppen climate classification Cfa) - characterized by hot, humid summers and cool winters. Significant amounts of precipitation occur in all seasons in most areas.

Runways

Designator Length Width Surface Rops
18R/36L 2438 46 PEM Yes/Yes
18L/36R 2835 46 CON Yes/Yes
Airport map: 
Aerial View: 

SKYbrary Partners:

Safety knowledge contributed by: